Aérodrome :
LOGIN :

S'inscrire | Disclaimer

   EN    FR    IT 

 










Légende :    VFR   VFR Marginal   IFR   IFR Intensif   IFR Très Intensif
Visi : 
Plafond : 
>= 8 km
>= 3000ft
5 à 8 km
1000 à 3000 ft
1500m à 5 km
500 à 1000 ft
800 à 1500m
200 à 500 ft
< 800m
< 200 ft
Symboles :   Orages  Brouillard  Fortes neiges  Fortes précipitations  Vent > 20 kt
SIGMETs :   Divers  Orages  Givrage  Turbulence  Onde Orograph.  Cendres Volcan.







- Altitude de l'aérodrome : 121 ft
- Code IATA : HUY
- Voir les cartes d'approche


EGNJ - Humberside

DERNIER METAR :
  • 250120Z AUTO 05003KT 9999 OVC008/// 16/15 Q1019

METARs EXPIRÉS :
  • 250050Z AUTO 06003KT 9999 BKN007/// OVC010/// 16/15 Q1019
  • 250020Z AUTO 05004KT 9999 OVC008/// 16/15 Q1019
  • 242350Z AUTO 07003KT 9999 OVC009/// 16/15 Q1019
  • 242320Z AUTO 06003KT 9999 OVC008/// 16/15 Q1019
  • 242250Z AUTO 04004KT 9999 BKN009/// OVC014/// 16/15 Q1019

TAF TAF EGNJ
Valide du 25 à 00h jusqu'au 25 à 09h UTC


242301Z 2500/2509 05005KT 9999 SCT008
TEMPO 2500/2502 6000 BKN004
BECMG 2502/2505 5000 BR BKN003
TEMPO 2502/2509 RA
PROB30 2502/2507 0300 FG BKN001
PROB40
TEMPO 2504/2509 2500 +TSRA
ATIS : +44 1652 682 020
Pas de NOTAMs connus pour ce terrain.
1 SIGMET publié pour la FIR London (EGTT) :
 
Orages noyés dans la masse
EGTT SIGMET 01 VALID 250100/250500 EGRR
EGTT LONDON FIR EMBD TS FCST WI N5130 W00100 - N5135 E00100 - N5030 E00101 - N5000 W00015 - N5000 W00200 - N5130 W00100 TOP FL360 MOV NNE 20KT NC=



MET'MAP, la Météo Aéronautique d'un coup d'oeil ! - Copyright ORBIFLY Décembre 2007 - Disclaimer

ORBIFLY MET'MAP TEAM :

Programmation & Développement : Alexandra Zaïnal
Conception & Développement : Baudouin d'Aumeries
Co-Programmation & Développement : Marc-Olivier Méhu
Soutien technique & logistique : Manuel Goepfert

Contact : metmap@orbifly.com




SOURCES & CREDITS :

   NOAA